createdAt,value
2018-07-23T00:00:29.668Z,81.88
2018-07-23T00:01:29.720Z,82.08
2018-07-23T00:02:29.628Z,81.79
2018-07-23T00:03:29.643Z,82.37
2018-07-23T00:04:29.592Z,82.46
2018-07-23T00:05:29.645Z,82.37
2018-07-23T00:06:29.551Z,83.04
2018-07-23T00:07:29.559Z,82.94
2018-07-23T00:08:29.511Z,82.85
2018-07-23T00:09:29.570Z,82.37
2018-07-23T00:10:29.474Z,82.75
2018-07-23T00:11:29.483Z,82.65
2018-07-23T00:12:29.435Z,82.65
2018-07-23T00:13:29.498Z,82.56
2018-07-23T00:14:29.395Z,81.88
2018-07-23T00:15:29.411Z,82.27
2018-07-23T00:16:29.357Z,82.17
2018-07-23T00:17:29.424Z,82.27
2018-07-23T00:18:29.315Z,81.98
2018-07-23T00:19:29.336Z,81.98
2018-07-23T00:20:29.283Z,81.70
2018-07-23T00:21:29.345Z,82.37
2018-07-23T00:22:29.241Z,81.88
2018-07-23T00:23:29.264Z,81.88
2018-07-23T00:24:29.198Z,82.46
2018-07-23T00:25:29.278Z,82.65
2018-07-23T00:26:29.159Z,82.65
2018-07-23T00:27:29.187Z,82.56
2018-07-23T00:28:29.120Z,82.65
2018-07-23T00:29:29.201Z,82.65
2018-07-23T00:30:29.079Z,82.56
2018-07-23T00:31:29.115Z,82.94
2018-07-23T00:32:29.042Z,83.42
2018-07-23T00:33:29.125Z,83.39
2018-07-23T00:34:29.002Z,83.14
2018-07-23T00:35:29.039Z,83.19
2018-07-23T00:36:28.965Z,82.81
2018-07-23T00:37:29.073Z,82.71
2018-07-23T00:38:28.919Z,83.00
2018-07-23T00:39:28.965Z,83.09
2018-07-23T00:40:28.881Z,83.29
2018-07-23T00:41:28.876Z,83.19
2018-07-23T00:42:28.842Z,83.19
2018-07-23T00:43:28.891Z,83.00
2018-07-23T00:44:28.802Z,83.58
2018-07-23T00:45:28.803Z,83.48
2018-07-23T00:46:28.761Z,83.00
2018-07-23T00:47:28.817Z,83.19
2018-07-23T00:48:28.725Z,83.19
2018-07-23T00:49:28.737Z,82.90
2018-07-23T00:50:28.684Z,83.00
2018-07-23T00:51:28.743Z,83.09
2018-07-23T00:52:28.642Z,83.00
2018-07-23T00:53:28.658Z,83.00
2018-07-23T00:54:28.604Z,83.19
2018-07-23T00:55:28.674Z,83.19
2018-07-23T00:56:28.562Z,83.19
2018-07-23T00:57:28.589Z,83.19
2018-07-23T00:58:28.528Z,83.29
2018-07-23T00:59:28.600Z,83.09
2018-07-23T01:00:28.483Z,83.67
2018-07-23T01:01:28.514Z,83.58
2018-07-23T01:02:28.445Z,83.77
2018-07-23T01:03:28.528Z,83.67
2018-07-23T01:04:28.406Z,83.48
2018-07-23T01:05:28.438Z,83.96
2018-07-23T01:06:28.370Z,84.06
2018-07-23T01:07:28.453Z,83.86
2018-07-23T01:08:28.327Z,83.53
2018-07-23T01:09:28.364Z,84.21
2018-07-23T01:10:28.286Z,83.86
2018-07-23T01:11:28.378Z,84.01
2018-07-23T01:12:28.243Z,84.11
2018-07-23T01:13:28.290Z,83.44
2018-07-23T01:14:28.208Z,84.16
2018-07-23T01:15:28.218Z,84.54
2018-07-23T01:16:28.161Z,84.01
2018-07-23T01:17:28.202Z,84.21
2018-07-23T01:18:28.123Z,84.40
2018-07-23T01:19:28.124Z,84.16
2018-07-23T01:20:28.087Z,84.98
2018-07-23T01:21:28.146Z,85.07
2018-07-23T01:22:28.043Z,84.88
2018-07-23T01:23:28.052Z,84.50
2018-07-23T01:24:28.001Z,84.78
2018-07-23T01:25:28.066Z,84.69
2018-07-23T01:26:27.972Z,84.69
2018-07-23T01:27:27.980Z,85.17
2018-07-23T01:28:27.924Z,85.17
2018-07-23T01:29:27.990Z,85.27
2018-07-23T01:30:27.883Z,85.41
2018-07-23T01:31:27.902Z,85.36
2018-07-23T01:32:27.841Z,85.46
2018-07-23T01:33:27.917Z,85.71
2018-07-23T01:34:27.800Z,86.09
2018-07-23T01:35:27.827Z,85.61
2018-07-23T01:36:27.760Z,86.28
2018-07-23T01:37:27.876Z,86.18
2018-07-23T01:38:27.720Z,85.71
2018-07-23T01:39:27.753Z,86.76
2018-07-23T01:40:27.682Z,86.38
2018-07-23T01:41:27.770Z,86.18
2018-07-23T01:42:27.643Z,85.99
2018-07-23T01:43:27.681Z,86.28
2018-07-23T01:44:27.607Z,86.47
2018-07-23T01:45:27.591Z,86.57
2018-07-23T01:46:27.557Z,86.85
2018-07-23T01:47:27.604Z,86.38
2018-07-23T01:48:27.522Z,86.38
2018-07-23T01:49:27.519Z,87.05
2018-07-23T01:50:27.473Z,87.34
2018-07-23T01:51:27.532Z,87.43
2018-07-23T01:52:27.459Z,87.15
2018-07-23T01:53:27.442Z,86.95
2018-07-23T01:54:27.387Z,86.18
2018-07-23T01:55:27.458Z,87.19
2018-07-23T01:56:27.355Z,87.19
2018-07-23T01:57:27.369Z,87.15
2018-07-23T01:58:27.318Z,86.81
2018-07-23T01:59:27.384Z,86.91
2018-07-23T02:00:27.275Z,87.39
2018-07-23T02:01:27.295Z,87.19
2018-07-23T02:02:27.237Z,87.58
2018-07-23T02:03:27.310Z,87.49
2018-07-23T02:04:27.189Z,88.16
2018-07-23T02:05:27.220Z,87.87
2018-07-23T02:06:27.146Z,87.87
2018-07-23T02:07:27.236Z,87.87
2018-07-23T02:08:27.111Z,88.16
2018-07-23T02:09:27.147Z,87.68
2018-07-23T02:10:27.065Z,87.96
2018-07-23T02:11:27.061Z,87.77
2018-07-23T02:12:27.024Z,87.96
2018-07-23T02:13:27.072Z,87.87
2018-07-23T02:14:26.983Z,87.77
2018-07-23T02:15:26.985Z,87.96
2018-07-23T02:16:26.947Z,88.54
2018-07-23T02:17:27.000Z,88.45
2018-07-23T02:18:26.905Z,88.54
2018-07-23T02:19:26.912Z,88.73
2018-07-23T02:20:26.862Z,88.73
2018-07-23T02:21:26.925Z,88.45
2018-07-23T02:22:26.827Z,88.83
2018-07-23T02:23:26.837Z,88.49
2018-07-23T02:24:26.781Z,89.26
2018-07-23T02:25:26.851Z,89.07
2018-07-23T02:26:26.735Z,89.07
2018-07-23T02:27:26.763Z,89.26
2018-07-23T02:28:26.696Z,88.98
2018-07-23T02:29:26.778Z,89.07
2018-07-23T02:30:26.659Z,88.88
2018-07-23T02:31:26.692Z,89.55
2018-07-23T02:32:26.611Z,89.46
2018-07-23T02:33:26.694Z,89.75
2018-07-23T02:34:26.568Z,89.46
2018-07-23T02:35:26.616Z,90.13
2018-07-23T02:36:26.532Z,89.36
2018-07-23T02:37:26.527Z,89.84
2018-07-23T02:38:26.487Z,90.22
2018-07-23T02:39:26.541Z,89.55
2018-07-23T02:40:26.456Z,89.75
2018-07-23T02:41:26.455Z,90.22
2018-07-23T02:42:26.414Z,89.84
2018-07-23T02:43:26.491Z,89.46
2018-07-23T02:44:26.368Z,89.46
2018-07-23T02:45:26.381Z,90.32
2018-07-23T02:46:26.318Z,90.22
2018-07-23T02:47:26.399Z,90.32
2018-07-23T02:48:26.279Z,89.55
2018-07-23T02:49:26.307Z,89.46
2018-07-23T02:50:26.235Z,89.75
2018-07-23T02:51:26.326Z,89.84
2018-07-23T02:52:26.195Z,89.75
2018-07-23T02:53:26.235Z,89.46
2018-07-23T02:54:26.155Z,90.03
2018-07-23T02:55:26.146Z,90.52
2018-07-23T02:56:26.109Z,90.32
2018-07-23T02:57:26.157Z,90.32
2018-07-23T02:58:26.068Z,90.13
2018-07-23T02:59:26.072Z,90.22
2018-07-23T03:00:26.026Z,90.70
2018-07-23T03:01:26.086Z,90.70
2018-07-23T03:02:25.983Z,90.99
2018-07-23T03:03:25.998Z,90.99
2018-07-23T03:04:25.941Z,90.61
2018-07-23T03:05:26.012Z,90.90
2018-07-23T03:06:25.901Z,90.80
2018-07-23T03:07:25.926Z,90.32
2018-07-23T03:08:25.863Z,90.70
2018-07-23T03:09:25.938Z,89.94
2018-07-23T03:10:25.820Z,90.66
2018-07-23T03:11:25.851Z,90.27
2018-07-23T03:12:25.786Z,90.94
2018-07-23T03:13:25.867Z,90.75
2018-07-23T03:14:25.734Z,90.56
2018-07-23T03:15:25.777Z,91.13
2018-07-23T03:16:25.700Z,90.84
2018-07-23T03:17:25.689Z,90.75
2018-07-23T03:18:25.648Z,91.04
2018-07-23T03:19:25.700Z,91.04
2018-07-23T03:20:25.608Z,90.94
2018-07-23T03:21:25.613Z,91.04
2018-07-23T03:22:25.571Z,91.23
2018-07-23T03:23:25.629Z,91.04
2018-07-23T03:24:25.527Z,90.56
2018-07-23T03:25:25.541Z,90.66
2018-07-23T03:26:25.481Z,90.46
2018-07-23T03:27:25.554Z,90.75
2018-07-23T03:28:25.437Z,90.56
2018-07-23T03:29:25.469Z,90.08
2018-07-23T03:30:25.403Z,89.89
2018-07-23T03:31:25.482Z,89.79
2018-07-23T03:32:25.366Z,90.46
2018-07-23T03:33:25.390Z,90.27
2018-07-23T03:34:25.330Z,89.79
2018-07-23T03:35:25.405Z,89.89
2018-07-23T03:36:25.277Z,89.83
2018-07-23T03:37:25.316Z,89.50
2018-07-23T03:38:25.229Z,89.60
2018-07-23T03:39:25.228Z,89.69
2018-07-23T03:40:25.188Z,89.22
2018-07-23T03:41:25.243Z,89.60
2018-07-23T03:42:25.147Z,89.36
2018-07-23T03:43:25.159Z,89.26
2018-07-23T03:44:25.119Z,89.16
2018-07-23T03:45:25.171Z,89.26
2018-07-23T03:46:25.065Z,89.36
2018-07-23T03:47:25.088Z,88.39
2018-07-23T03:48:25.026Z,88.10
2018-07-23T03:49:25.104Z,88.39
2018-07-23T03:50:24.981Z,88.68
2018-07-23T03:51:25.006Z,88.68
2018-07-23T03:52:24.937Z,88.39
2018-07-23T03:53:25.019Z,88.30
2018-07-23T03:54:24.896Z,88.20
2018-07-23T03:55:24.927Z,88.20
2018-07-23T03:56:24.855Z,88.68
2018-07-23T03:57:24.846Z,88.10
2018-07-23T03:58:24.811Z,88.10
2018-07-23T03:59:24.860Z,88.01
2018-07-23T04:00:24.770Z,88.01
2018-07-23T04:01:24.776Z,88.15
2018-07-23T04:02:24.737Z,88.49
2018-07-23T04:03:24.827Z,89.07
2018-07-23T04:04:24.691Z,89.01
2018-07-23T04:05:24.700Z,89.30
2018-07-23T04:06:24.650Z,89.64
2018-07-23T04:07:24.719Z,89.40
2018-07-23T04:08:24.601Z,88.92
2018-07-23T04:09:24.625Z,88.73
2018-07-23T04:10:24.563Z,88.44
2018-07-23T04:11:24.639Z,88.15
2018-07-23T04:12:24.524Z,87.19
2018-07-23T04:13:24.552Z,87.09
2018-07-23T04:14:24.486Z,86.99
2018-07-23T04:15:24.566Z,86.61
2018-07-23T04:16:24.437Z,87.19
2018-07-23T04:17:24.488Z,86.42
2018-07-23T04:18:24.398Z,86.61
2018-07-23T04:19:24.489Z,86.32
2018-07-23T04:20:24.356Z,86.32
2018-07-23T04:21:24.401Z,86.61
2018-07-23T04:22:24.316Z,86.61
2018-07-23T04:23:24.312Z,86.42
2018-07-23T04:24:24.275Z,86.42
2018-07-23T04:25:24.328Z,85.94
2018-07-23T04:26:24.241Z,86.22
2018-07-23T04:27:24.240Z,85.36
2018-07-23T04:28:24.190Z,85.84
2018-07-23T04:29:24.252Z,85.50
2018-07-23T04:30:24.151Z,85.65
2018-07-23T04:31:24.166Z,85.94
2018-07-23T04:32:24.106Z,85.84
2018-07-23T04:33:24.176Z,85.88
2018-07-23T04:34:24.069Z,85.98
2018-07-23T04:35:24.091Z,86.22
2018-07-23T04:36:24.026Z,86.18
2018-07-23T04:37:24.102Z,86.42
2018-07-23T04:38:23.985Z,85.98
2018-07-23T04:39:24.014Z,86.42
2018-07-23T04:40:23.948Z,86.27
2018-07-23T04:41:24.029Z,86.36
2018-07-23T04:42:23.937Z,85.88
2018-07-23T04:43:23.950Z,86.46
2018-07-23T04:44:23.861Z,86.46
2018-07-23T04:45:23.955Z,85.88
2018-07-23T04:46:23.820Z,86.27
2018-07-23T04:47:23.870Z,86.27
2018-07-23T04:48:23.782Z,86.46
2018-07-23T04:49:23.856Z,85.78
2018-07-23T04:50:23.741Z,86.36
2018-07-23T04:51:23.794Z,86.65
2018-07-23T04:52:23.700Z,85.98
2018-07-23T04:53:23.707Z,85.98
2018-07-23T04:54:23.662Z,85.83
2018-07-23T04:55:23.721Z,85.44
2018-07-23T04:56:23.617Z,85.64
2018-07-23T04:57:23.631Z,86.02
2018-07-23T04:58:23.574Z,86.22
2018-07-23T04:59:23.647Z,86.02
2018-07-23T05:00:23.535Z,85.93
2018-07-23T05:01:23.561Z,85.83
2018-07-23T05:02:23.497Z,85.64
2018-07-23T05:03:23.577Z,85.64
2018-07-23T05:04:23.458Z,84.67
2018-07-23T05:05:23.486Z,84.58
2018-07-23T05:06:23.412Z,84.87
2018-07-23T05:07:23.504Z,84.00
2018-07-23T05:08:23.385Z,84.48
2018-07-23T05:09:23.519Z,84.39
2018-07-23T05:10:23.432Z,84.39
2018-07-23T05:11:23.310Z,84.10
2018-07-23T05:12:23.433Z,84.29
2018-07-23T05:13:23.273Z,84.87
2018-07-23T05:14:23.343Z,84.48
2018-07-23T05:15:23.431Z,84.87
2018-07-23T05:16:23.213Z,84.39
2018-07-23T05:17:23.366Z,84.19
2018-07-23T05:18:23.170Z,84.48
2018-07-23T05:19:23.175Z,84.67
2018-07-23T05:20:23.128Z,84.67
2018-07-23T05:21:23.291Z,83.91
2018-07-23T05:22:23.115Z,83.62
2018-07-23T05:23:23.204Z,83.72
2018-07-23T05:24:23.087Z,84.29
2018-07-23T05:25:23.220Z,84.62
2018-07-23T05:26:23.015Z,83.95
2018-07-23T05:27:23.133Z,83.85
2018-07-23T05:28:22.986Z,84.53
2018-07-23T05:29:23.145Z,84.43
2018-07-23T05:30:22.929Z,83.37
2018-07-23T05:31:22.955Z,82.41
2018-07-23T05:32:22.892Z,81.63
2018-07-23T05:33:23.067Z,82.02
2018-07-23T05:34:22.845Z,82.60
2018-07-23T05:35:22.885Z,82.21
2018-07-23T05:36:22.985Z,82.12
2018-07-23T05:37:22.996Z,82.79
2018-07-23T05:38:22.809Z,83.08
2018-07-23T05:39:22.908Z,82.12
2018-07-23T05:40:22.727Z,81.83
2018-07-23T05:41:22.816Z,81.54
2018-07-23T05:42:22.686Z,81.73
2018-07-23T05:43:22.732Z,81.87
2018-07-23T05:44:22.645Z,82.16
2018-07-23T05:45:22.746Z,82.16
2018-07-23T05:46:22.607Z,81.87
2018-07-23T05:47:22.658Z,81.96
2018-07-23T05:48:22.574Z,82.16
2018-07-23T05:49:22.674Z,81.77
2018-07-23T05:50:22.527Z,83.12
2018-07-23T05:51:22.583Z,80.81
2018-07-23T05:52:22.485Z,81.20
2018-07-23T05:53:22.599Z,81.39
2018-07-23T05:54:22.445Z,81.29
2018-07-23T05:55:22.508Z,81.48
2018-07-23T05:56:22.412Z,81.39
2018-07-23T05:57:22.523Z,80.37
2018-07-23T05:58:22.369Z,79.31
2018-07-23T05:59:22.437Z,79.94
2018-07-23T06:00:22.327Z,79.56
2018-07-23T06:01:22.347Z,79.79
2018-07-23T06:02:22.293Z,80.43
2018-07-23T06:03:22.360Z,79.27
2018-07-23T06:04:22.252Z,78.40
2018-07-23T06:05:22.274Z,79.11
2018-07-23T06:06:22.244Z,79.02
2018-07-23T06:07:22.287Z,79.31
2018-07-23T06:08:22.169Z,78.69
2018-07-23T06:09:22.198Z,79.31
2018-07-23T06:10:22.137Z,79.31
2018-07-23T06:11:22.214Z,78.73
2018-07-23T06:12:22.093Z,79.02
2018-07-23T06:13:22.132Z,79.02
2018-07-23T06:14:22.062Z,79.21
2018-07-23T06:15:22.141Z,79.60
2018-07-23T06:16:22.015Z,78.34
2018-07-23T06:17:22.063Z,78.15
2018-07-23T06:18:21.984Z,78.25
2018-07-23T06:19:22.085Z,78.83
2018-07-23T06:20:21.942Z,78.67
2018-07-23T06:21:21.977Z,78.67
2018-07-23T06:22:21.901Z,78.38
2018-07-23T06:23:21.991Z,78.19
2018-07-23T06:24:21.865Z,78.77
2018-07-23T06:25:21.902Z,77.42
2018-07-23T06:26:21.816Z,77.51
2018-07-23T06:27:21.917Z,78.58
2018-07-23T06:28:21.780Z,76.84
2018-07-23T06:29:21.829Z,77.03
2018-07-23T06:30:21.791Z,77.13
2018-07-23T06:31:21.843Z,77.61
2018-07-23T06:32:21.738Z,78.00
2018-07-23T06:33:21.755Z,77.61
2018-07-23T06:34:21.662Z,77.55
2018-07-23T06:35:21.768Z,77.55
2018-07-23T06:36:21.629Z,77.07
2018-07-23T06:37:21.680Z,77.84
2018-07-23T06:38:21.592Z,76.78
2018-07-23T06:39:21.696Z,76.88
2018-07-23T06:40:21.546Z,77.36
2018-07-23T06:41:21.606Z,77.17
2018-07-23T06:42:21.514Z,77.07
2018-07-23T06:43:21.580Z,77.36
2018-07-23T06:44:21.470Z,76.68
2018-07-23T06:45:21.531Z,75.92
2018-07-23T06:46:21.432Z,76.72
2018-07-23T06:47:21.478Z,76.30
2018-07-23T06:48:21.398Z,76.15
2018-07-23T06:49:21.460Z,76.92
2018-07-23T06:50:21.363Z,76.53
2018-07-23T06:51:21.370Z,76.34
2018-07-23T06:52:21.318Z,75.67
2018-07-23T06:53:21.386Z,74.99
2018-07-23T06:54:21.283Z,74.60
2018-07-23T06:55:21.298Z,74.51
2018-07-23T06:56:21.243Z,74.21
2018-07-23T06:57:21.355Z,73.93
2018-07-23T06:58:21.209Z,74.21
2018-07-23T06:59:21.222Z,74.02
2018-07-23T07:00:21.169Z,73.83
2018-07-23T07:01:21.237Z,73.83
2018-07-23T07:02:21.129Z,73.73
2018-07-23T07:03:21.241Z,73.73
2018-07-23T07:04:21.097Z,73.83
2018-07-23T07:05:21.164Z,73.35
2018-07-23T07:06:21.107Z,73.63
2018-07-23T07:07:21.108Z,73.73
2018-07-23T07:08:21.022Z,72.67
2018-07-23T07:09:21.089Z,73.83
2018-07-23T07:10:20.980Z,72.86
2018-07-23T07:11:21.002Z,73.15
2018-07-23T07:12:20.941Z,73.73
2018-07-23T07:13:21.048Z,73.44
2018-07-23T07:14:20.909Z,73.44
2018-07-23T07:15:20.927Z,74.89
2018-07-23T07:16:20.868Z,74.54
2018-07-23T07:17:20.943Z,72.71
2018-07-23T07:18:20.831Z,73.00
2018-07-23T07:19:20.852Z,72.13
2018-07-23T07:20:20.793Z,71.84
2018-07-23T07:21:20.868Z,71.64
2018-07-23T07:22:20.757Z,72.52
2018-07-23T07:23:20.781Z,72.42
2018-07-23T07:24:20.720Z,71.94
2018-07-23T07:25:20.831Z,71.64
2018-07-23T07:26:20.680Z,71.26
2018-07-23T07:27:20.709Z,72.13
2018-07-23T07:28:20.652Z,70.97
2018-07-23T07:29:20.721Z,70.58
2018-07-23T07:30:20.612Z,72.03
2018-07-23T07:31:20.633Z,71.84
2018-07-23T07:32:20.573Z,70.00
2018-07-23T07:33:20.649Z,69.65
2018-07-23T07:34:20.541Z,69.26
2018-07-23T07:35:20.558Z,69.56
2018-07-23T07:36:20.495Z,69.07
2018-07-23T07:37:20.574Z,71.00
2018-07-23T07:38:20.481Z,71.00
2018-07-23T07:39:20.501Z,70.52
2018-07-23T07:40:20.425Z,70.07
2018-07-23T07:41:20.496Z,69.78
2018-07-23T07:42:20.392Z,69.10
2018-07-23T07:43:20.429Z,69.40
2018-07-23T07:44:20.348Z,69.40
2018-07-23T07:45:20.438Z,69.78
2018-07-23T07:46:20.338Z,66.98
2018-07-23T07:47:20.336Z,65.53
2018-07-23T07:48:20.282Z,65.92
2018-07-23T07:49:20.366Z,67.56
2018-07-23T07:50:20.246Z,67.08
2018-07-23T07:51:20.269Z,68.52
2018-07-23T07:52:20.225Z,68.27
2018-07-23T07:53:20.290Z,68.17
2018-07-23T07:54:20.184Z,66.72
2018-07-23T07:55:20.191Z,65.66
2018-07-23T07:56:20.139Z,66.05
2018-07-23T07:57:20.204Z,65.08
2018-07-23T07:58:20.109Z,65.98
2018-07-23T07:59:20.118Z,63.37
2018-07-23T08:00:20.068Z,62.98
2018-07-23T08:01:20.131Z,64.43
2018-07-23T08:02:20.035Z,62.79
2018-07-23T08:03:20.048Z,63.76
2018-07-23T08:04:20.000Z,62.98
2018-07-23T08:05:20.057Z,62.82
2018-07-23T08:06:19.963Z,63.21
2018-07-23T08:07:19.971Z,62.04
2018-07-23T08:08:19.929Z,63.31
2018-07-23T08:09:19.984Z,60.11
2018-07-23T08:10:19.897Z,60.40
2018-07-23T08:11:19.897Z,58.17
2018-07-23T08:12:19.869Z,56.92
2018-07-23T08:13:19.911Z,57.98
2018-07-23T08:14:19.828Z,58.17
2018-07-23T08:15:19.922Z,58.37
2018-07-23T08:16:19.797Z,57.98
2018-07-23T08:17:19.836Z,58.56
2018-07-23T08:18:19.757Z,60.72
2018-07-23T08:19:19.848Z,60.24
2018-07-23T08:20:19.726Z,60.07
2018-07-23T08:21:19.759Z,60.52
2018-07-23T08:22:19.689Z,61.49
2018-07-23T08:23:19.774Z,60.55
2018-07-23T08:24:19.672Z,59.59
2018-07-23T08:25:19.685Z,60.65
2018-07-23T08:26:19.632Z,61.24
2018-07-23T08:27:19.699Z,60.46
2018-07-23T08:28:19.590Z,60.75
2018-07-23T08:29:19.610Z,60.30
2018-07-23T08:30:19.557Z,61.17
2018-07-23T08:31:19.625Z,59.81
2018-07-23T08:32:19.529Z,59.33
2018-07-23T08:33:19.537Z,60.17
2018-07-23T08:34:19.478Z,61.07
2018-07-23T08:35:19.550Z,60.75
2018-07-23T08:36:19.463Z,62.23
2018-07-23T08:37:19.461Z,61.94
2018-07-23T08:38:19.423Z,61.55
2018-07-23T08:39:19.475Z,62.33
2018-07-23T08:40:19.413Z,61.94
2018-07-23T08:41:19.389Z,60.78
2018-07-23T08:42:19.368Z,61.00
2018-07-23T08:43:19.404Z,59.94
2018-07-23T08:44:19.332Z,60.13
2018-07-23T08:45:19.418Z,60.03
2018-07-23T08:46:19.297Z,59.84
2018-07-23T08:47:19.337Z,58.70
2018-07-23T08:48:19.258Z,58.67
2018-07-23T08:49:19.343Z,60.35
2018-07-23T08:50:19.233Z,61.32
2018-07-23T08:51:19.290Z,60.64
2018-07-23T08:52:19.197Z,60.06
2018-07-23T08:53:19.268Z,59.38
2018-07-23T08:54:19.169Z,59.38
2018-07-23T08:55:19.180Z,60.16
2018-07-23T08:56:19.134Z,58.90
2018-07-23T08:57:19.207Z,60.84
2018-07-23T08:58:19.114Z,60.06
2018-07-23T08:59:19.116Z,60.38
2018-07-23T09:00:19.073Z,60.68
2018-07-23T09:01:19.120Z,60.38
2018-07-23T09:02:19.092Z,60.38
2018-07-23T09:03:19.032Z,60.19
2018-07-23T09:04:19.004Z,60.02
2018-07-23T09:05:19.047Z,59.92
2018-07-23T09:06:18.981Z,59.34
2018-07-23T09:07:19.061Z,59.92
2018-07-23T09:08:18.951Z,59.74
2018-07-23T09:09:18.972Z,58.21
2018-07-23T09:10:18.919Z,57.72
2018-07-23T09:11:18.987Z,56.56
2018-07-23T09:12:18.883Z,57.04
2018-07-23T09:13:18.902Z,58.62
2018-07-23T09:14:18.853Z,57.07
2018-07-23T09:15:18.917Z,56.59
2018-07-23T09:16:18.821Z,58.14
2018-07-23T09:17:18.886Z,56.39
2018-07-23T09:18:18.791Z,56.20
2018-07-23T09:19:18.841Z,57.46
2018-07-23T09:20:18.761Z,55.61
2018-07-23T09:21:18.856Z,56.95
2018-07-23T09:22:18.737Z,57.23
2018-07-23T09:23:18.773Z,57.07
2018-07-23T09:24:18.696Z,55.32
2018-07-23T09:25:18.783Z,56.00
2018-07-23T09:26:18.676Z,57.59
2018-07-23T09:27:18.694Z,57.61
2018-07-23T09:28:18.642Z,55.76
2018-07-23T09:29:18.719Z,57.25
2018-07-23T09:30:18.625Z,54.46
2018-07-23T09:31:18.625Z,52.40
2018-07-23T09:32:18.582Z,52.80
2018-07-23T09:33:18.634Z,50.36
2018-07-23T09:34:18.562Z,52.89
2018-07-23T09:35:18.649Z,51.43
2018-07-23T09:36:18.527Z,51.46
2018-07-23T09:37:18.681Z,52.46
2018-07-23T09:38:18.495Z,50.80
2018-07-23T09:39:18.572Z,52.07
2018-07-23T09:40:18.485Z,50.90
2018-07-23T09:41:18.485Z,51.02
2018-07-23T09:42:18.437Z,50.85
2018-07-23T09:43:18.496Z,50.07
2018-07-23T09:44:18.409Z,50.95
2018-07-23T09:45:18.414Z,51.04
2018-07-23T09:46:18.385Z,51.24
2018-07-23T09:47:18.433Z,50.56
2018-07-23T09:48:18.354Z,49.88
2018-07-23T09:49:18.441Z,48.97
2018-07-23T09:50:18.331Z,51.19
2018-07-23T09:51:18.354Z,51.61
2018-07-23T09:52:18.296Z,50.92
2018-07-23T09:53:18.366Z,51.12
2018-07-23T09:54:18.361Z,49.68
2018-07-23T09:55:18.276Z,51.04
2018-07-23T09:56:18.246Z,49.61
2018-07-23T09:57:18.336Z,49.32
2018-07-23T09:58:18.216Z,49.71
2018-07-23T09:59:18.205Z,48.55
2018-07-23T10:00:18.207Z,50.22
2018-07-23T10:01:18.173Z,49.12
2018-07-23T10:02:18.222Z,48.93
2018-07-23T10:03:18.237Z,49.92
2018-07-23T10:04:18.242Z,48.97
2018-07-23T10:05:18.120Z,47.31
2018-07-23T10:06:18.150Z,48.19
2018-07-23T10:07:18.095Z,47.92
2018-07-23T10:08:18.163Z,47.72
2018-07-23T10:09:18.066Z,49.68
2018-07-23T10:10:18.074Z,48.60
2018-07-23T10:11:18.040Z,48.43
2018-07-23T10:12:18.090Z,47.14
2018-07-23T10:13:18.016Z,49.70
2018-07-23T10:14:18.103Z,49.41
2018-07-23T10:15:17.990Z,46.57
2018-07-23T10:16:18.014Z,46.77
2018-07-23T10:17:17.966Z,47.16
2018-07-23T10:18:18.030Z,45.47
2018-07-23T10:19:17.941Z,47.26
2018-07-23T10:20:18.042Z,46.84
2018-07-23T10:21:17.919Z,48.70
2018-07-23T10:22:18.001Z,48.92
2018-07-23T10:23:17.899Z,46.86
2018-07-23T10:24:17.966Z,46.75
2018-07-23T10:25:17.865Z,46.75
2018-07-23T10:26:17.879Z,48.63
2018-07-23T10:27:17.840Z,46.79
2018-07-23T10:28:17.898Z,48.77
2018-07-23T10:29:17.814Z,46.62
2018-07-23T10:30:17.913Z,45.59
2018-07-23T10:31:17.793Z,45.09
2018-07-23T10:32:17.822Z,45.12
2018-07-23T10:33:17.773Z,46.56
2018-07-23T10:34:17.836Z,45.51
2018-07-23T10:35:17.752Z,43.66
2018-07-23T10:36:17.851Z,43.37
2018-07-23T10:37:17.729Z,43.08
2018-07-23T10:38:17.763Z,42.88
2018-07-23T10:39:17.705Z,42.98
2018-07-23T10:40:17.776Z,42.49
2018-07-23T10:41:17.675Z,44.43
2018-07-23T10:42:17.691Z,44.06
2018-07-23T10:43:17.657Z,43.65
2018-07-23T10:44:17.700Z,43.43
2018-07-23T10:45:17.629Z,43.80
2018-07-23T10:46:17.716Z,44.88
2018-07-23T10:47:17.621Z,44.09
2018-07-23T10:48:17.628Z,45.86
2018-07-23T10:49:17.587Z,46.34
2018-07-23T10:50:17.665Z,44.27
2018-07-23T10:51:17.566Z,45.42
2018-07-23T10:52:17.669Z,46.37
2018-07-23T10:53:17.555Z,46.36
2018-07-23T10:54:17.572Z,46.55
2018-07-23T10:55:17.523Z,46.26
2018-07-23T10:56:17.584Z,47.21
2018-07-23T10:57:17.563Z,46.72
2018-07-23T10:58:17.598Z,46.43
2018-07-23T10:59:17.477Z,46.82
2018-07-23T11:00:17.513Z,47.11
2018-07-23T11:01:17.458Z,46.62
2018-07-23T11:02:17.528Z,46.33
2018-07-23T11:03:17.434Z,47.21
2018-07-23T11:04:17.458Z,46.70
2018-07-23T11:05:17.410Z,48.14
2018-07-23T11:06:17.454Z,48.36
2018-07-23T11:07:17.421Z,48.16
2018-07-23T11:08:17.468Z,47.36
2018-07-23T11:09:17.391Z,47.73
2018-07-23T11:10:17.378Z,48.80
2018-07-23T11:11:17.349Z,49.32
2018-07-23T11:12:17.393Z,51.37
2018-07-23T11:13:17.452Z,50.63
2018-07-23T11:14:17.409Z,48.97
2018-07-23T11:15:17.298Z,47.41
2018-07-23T11:16:17.316Z,47.99
2018-07-23T11:17:17.282Z,46.94
2018-07-23T11:18:17.333Z,45.59
2018-07-23T11:19:17.329Z,46.01
2018-07-23T11:20:17.346Z,46.52
2018-07-23T11:21:17.232Z,46.54
2018-07-23T11:22:17.256Z,44.09
2018-07-23T11:23:17.208Z,43.60
2018-07-23T11:24:17.275Z,43.77
2018-07-23T11:25:38.809Z,44.76
2018-07-23T11:26:17.304Z,45.05
2018-07-23T11:27:17.170Z,44.19
2018-07-23T11:28:17.196Z,44.98
2018-07-23T11:29:17.164Z,43.60
2018-07-23T11:30:17.212Z,43.80
2018-07-23T11:31:17.119Z,44.09
2018-07-23T11:32:17.128Z,44.85
2018-07-23T11:33:17.106Z,45.27
2018-07-23T11:34:17.140Z,44.41
2018-07-23T11:35:17.080Z,43.92
2018-07-23T11:36:17.148Z,42.96
2018-07-23T11:37:17.054Z,42.84
2018-07-23T11:38:17.065Z,43.13
2018-07-23T11:39:17.034Z,43.23
2018-07-23T11:40:17.079Z,45.21
2018-07-23T11:41:17.014Z,45.34
2018-07-23T11:42:17.094Z,45.18
2018-07-23T11:43:16.996Z,42.92
2018-07-23T11:44:17.006Z,41.86
2018-07-23T11:45:17.037Z,40.76
2018-07-23T11:46:24.983Z,42.75
2018-07-23T11:47:17.021Z,42.65
2018-07-23T11:48:17.032Z,41.56
2018-07-23T11:49:16.932Z,41.43
2018-07-23T11:50:16.948Z,42.79
2018-07-23T11:51:16.918Z,42.37
2018-07-23T11:52:16.971Z,41.86
2018-07-23T11:53:16.954Z,43.92
2018-07-23T11:54:16.990Z,42.55
2018-07-23T11:55:16.872Z,43.74
2018-07-23T11:56:16.884Z,43.37
2018-07-23T11:57:16.851Z,42.41
2018-07-23T11:58:16.901Z,42.51
2018-07-23T11:59:16.832Z,42.72
2018-07-23T12:00:16.918Z,42.75
2018-07-23T12:01:16.812Z,41.47
2018-07-23T12:02:16.827Z,41.19
2018-07-23T12:03:16.794Z,41.02
2018-07-23T12:04:16.900Z,41.04
2018-07-23T12:05:16.784Z,41.75
2018-07-23T12:06:16.854Z,41.25
2018-07-23T12:07:16.756Z,40.58
2018-07-23T12:08:16.769Z,40.29
2018-07-23T12:09:16.742Z,39.72
2018-07-23T12:10:16.791Z,39.12
2018-07-23T12:11:16.718Z,38.22
2018-07-23T12:12:16.795Z,38.79
2018-07-23T12:13:16.696Z,38.76
2018-07-23T12:14:16.711Z,40.21
2018-07-23T12:15:16.689Z,41.29
2018-07-23T12:16:16.720Z,41.88
2018-07-23T12:17:16.722Z,41.31
2018-07-23T12:18:16.736Z,40.33
2018-07-23T12:19:16.662Z,40.82
2018-07-23T12:20:16.754Z,40.11
2018-07-23T12:21:16.631Z,40.78
2018-07-23T12:22:16.664Z,41.45
2018-07-23T12:23:16.611Z,41.84
2018-07-23T12:24:16.677Z,40.48
2018-07-23T12:25:16.596Z,41.25
2018-07-23T12:26:16.690Z,42.35
2018-07-23T12:27:16.579Z,41.88
2018-07-23T12:28:16.602Z,40.13
2018-07-23T12:29:16.559Z,39.15
2018-07-23T12:30:16.617Z,40.90
2018-07-23T12:31:16.547Z,40.19
2018-07-23T12:32:16.632Z,40.51
2018-07-23T12:33:16.529Z,40.11
2018-07-23T12:34:16.538Z,40.21
2018-07-23T12:35:16.509Z,40.43
2018-07-23T12:36:17.582Z,40.63
2018-07-23T12:37:16.491Z,38.85
2018-07-23T12:38:16.574Z,40.51
2018-07-23T12:39:16.497Z,41.09
2018-07-23T12:40:16.482Z,40.80
2018-07-23T12:41:16.469Z,39.94
2018-07-23T12:42:16.497Z,39.17
2018-07-23T12:43:16.608Z,40.25
2018-07-23T12:44:16.430Z,39.34
2018-07-23T12:45:16.622Z,38.56
2018-07-23T12:46:16.410Z,38.32
2018-07-23T12:47:16.537Z,40.29
2018-07-23T12:48:16.400Z,40.09
2018-07-23T12:49:16.547Z,40.21
2018-07-23T12:50:16.381Z,40.39
2018-07-23T12:51:16.560Z,40.39
2018-07-23T12:52:16.360Z,40.78